Terminal Aerodrome Forecast
Issued by NWS Sterling, VA

Home | Current Version | Previous Version | Text Only | Print | Product List | Glossary On
Versions: 1 2 3 4 5 6 7 8 9 10 11 12
000
FTUS41 KLWX 280500
TAFCHO
TAF
KCHO 280534Z 2806/2906 VRB03KT P6SM SCT050 BKN250
     FM281000 33004KT 5SM BR FEW050 SCT250
     FM281300 35004KT P6SM FEW050 SCT250
     FM282300 VRB03KT P6SM FEW050=

USA.gov is the U.S. government's official web portal to all federal, state and local government web resources and services.